Terminal Aerodrome Forecast
Issued by NWS Milwaukee/Sullivan, WI

Home | Current Version | Previous Version | Text Only | Print | Product List | Glossary On
Versions: 1 2 3 4 5 6 7 8 9 10 11 12 13 14 15 16 17 18 19 20 21 22 23 24 25 26 27 28 29 30 31 32 33 34 35 36 37 38 39 40 41 42
000
FTUS43 KMKX 121421 AAA
TAFMKE
TAF AMD
KMKE 121421Z 1214/1318 18005KT P6SM SCT025 BKN050
      TEMPO 1214/1216 6SM -SHRA BKN025
     FM121600 15007KT P6SM VCSH SCT025 BKN040
     FM121900 17006KT P6SM VCTS SCT035CB BKN080
     FM130100 24006KT 4SM TSRA BKN030CB
     FM130500 27006KT 5SM BR VCTS BKN030CB
     FM130800 31003KT 3SM BR SCT015 BKN025
     FM131300 31008KT P6SM SCT025=

USA.gov is the U.S. government's official web portal to all federal, state and local government web resources and services.